Time;durP1;ratioP1;P1;durP2;ratioP2;P2;SDS_P1;SDS_P2;PMS_P1;PMS_P2;Temp;Humidity;BMP_temperature;BMP_pressure;BME280_temperature;BME280_humidity;BME280_pressure;Samples;Min_cycle;Max_cycle;Signal;HPM_P1;HPM_P2
2022/08/03 00:00:40;;;;;;;5.15;3.58;;;;;;;;;;5063087;28;20238;-53
2022/08/03 00:03:06;;;;;;;6.70;4.13;;;;;;;;;;5065197;28;20231;-54
2022/08/03 00:05:33;;;;;;;5.60;3.60;;;;;;;;;;5071335;28;20234;-54
2022/08/03 00:08:01;;;;;;;3.60;3.30;;;;;;;;;;5051221;28;20243;-55
2022/08/03 00:10:27;;;;;;;4.63;3.83;;;;;;;;;;5053030;28;20232;-53
2022/08/03 00:12:54;;;;;;;6.43;3.72;;;;;;;;;;5048872;28;20235;-54
2022/08/03 00:15:20;;;;;;;5.88;4.10;;;;;;;;;;5050757;28;20241;-53
2022/08/03 00:17:46;;;;;;;7.38;4.45;;;;;;;;;;5059197;28;20231;-53
2022/08/03 00:20:13;;;;;;;8.95;4.55;;;;;;;;;;5082549;28;20266;-59
2022/08/03 00:22:39;;;;;;;6.97;3.65;;;;;;;;;;5070474;28;20591;-53
2022/08/03 00:25:07;;;;;;;4.32;3.92;;;;;;;;;;5066178;28;20232;-55
2022/08/03 00:27:33;;;;;;;4.50;4.10;;;;;;;;;;5052754;28;20283;-54
2022/08/03 00:30:00;;;;;;;4.50;3.78;;;;;;;;;;5078993;28;20703;-54
2022/08/03 00:32:26;;;;;;;5.47;4.03;;;;;;;;;;5057294;28;20235;-54
2022/08/03 00:34:52;;;;;;;4.45;3.85;;;;;;;;;;5065466;28;20230;-54
2022/08/03 00:37:19;;;;;;;5.22;3.78;;;;;;;;;;5056012;28;20238;-54
2022/08/03 00:39:46;;;;;;;6.00;3.80;;;;;;;;;;5059689;28;20235;-54
2022/08/03 00:42:14;;;;;;;4.28;3.80;;;;;;;;;;5073137;28;20296;-53
2022/08/03 00:44:41;;;;;;;3.60;3.35;;;;;;;;;;5081496;28;20601;-52
2022/08/03 00:47:07;;;;;;;4.38;3.95;;;;;;;;;;5076493;27;20241;-53
2022/08/03 00:49:33;;;;;;;4.68;3.60;;;;;;;;;;5078574;27;20632;-54
2022/08/03 00:52:00;;;;;;;4.63;3.42;;;;;;;;;;5083695;28;20249;-54
2022/08/03 00:54:27;;;;;;;13.45;3.53;;;;;;;;;;5084254;28;20240;-55
2022/08/03 00:56:53;;;;;;;4.20;2.70;;;;;;;;;;5077215;27;20235;-53
2022/08/03 00:59:21;;;;;;;4.85;3.10;;;;;;;;;;5085339;27;20235;-54
2022/08/03 01:01:47;;;;;;;4.20;3.03;;;;;;;;;;5080457;27;20238;-54
2022/08/03 01:04:14;;;;;;;3.30;3.00;;;;;;;;;;5081067;27;20231;-54
2022/08/03 01:06:43;;;;;;;3.97;3.28;;;;;;;;;;5080377;27;20707;-53
2022/08/03 01:09:12;;;;;;;5.40;3.22;;;;;;;;;;5082410;27;20234;-54
2022/08/03 01:11:42;;;;;;;9.60;3.55;;;;;;;;;;5081817;27;20293;-53
2022/08/03 01:14:10;;;;;;;3.53;3.22;;;;;;;;;;5063849;28;20855;-53
2022/08/03 01:16:40;;;;;;;3.35;3.03;;;;;;;;;;5074772;27;20234;-53
2022/08/03 01:19:13;;;;;;;4.30;3.70;;;;;;;;;;5079341;27;20233;-54
2022/08/03 01:21:46;;;;;;;6.93;3.40;;;;;;;;;;5081549;27;20229;-54
2022/08/03 01:24:22;;;;;;;3.20;2.72;;;;;;;;;;5077764;27;20231;-54
2022/08/03 01:27:03;;;;;;;3.75;3.38;;;;;;;;;;5085061;27;20233;-54
2022/08/03 01:29:48;;;;;;;3.88;2.90;;;;;;;;;;5085472;28;20234;-53
2022/08/03 01:32:17;;;;;;;3.55;3.25;;;;;;;;;;5081060;27;20719;-54
2022/08/03 01:34:46;;;;;;;4.20;3.17;;;;;;;;;;5081443;28;20309;-54
2022/08/03 01:37:15;;;;;;;2.85;2.28;;;;;;;;;;5082656;27;20238;-53
2022/08/03 01:39:42;;;;;;;4.47;3.45;;;;;;;;;;5077563;27;20229;-54
2022/08/03 01:42:11;;;;;;;4.93;3.53;;;;;;;;;;5085175;28;20230;-54
2022/08/03 01:44:39;;;;;;;3.72;2.78;;;;;;;;;;5080488;27;20234;-53
2022/08/03 01:47:06;;;;;;;5.65;3.35;;;;;;;;;;5076322;27;20242;-53
2022/08/03 01:49:36;;;;;;;3.90;3.10;;;;;;;;;;5082823;27;20225;-53
2022/08/03 01:52:03;;;;;;;2.95;2.72;;;;;;;;;;5082379;27;20238;-53
2022/08/03 01:54:30;;;;;;;4.07;2.90;;;;;;;;;;5077863;27;20223;-53
2022/08/03 01:56:59;;;;;;;3.40;3.10;;;;;;;;;;5079086;27;20230;-53
2022/08/03 01:59:26;;;;;;;3.55;3.25;;;;;;;;;;5089243;27;20249;-54
2022/08/03 02:01:53;;;;;;;4.50;3.42;;;;;;;;;;5075249;27;20239;-53
2022/08/03 02:04:20;;;;;;;4.70;2.80;;;;;;;;;;5087046;28;20246;-54
2022/08/03 02:06:48;;;;;;;3.70;2.95;;;;;;;;;;5072874;27;20233;-55
2022/08/03 02:09:15;;;;;;;3.15;2.75;;;;;;;;;;5074755;27;20238;-57
2022/08/03 02:11:42;;;;;;;3.65;3.28;;;;;;;;;;5077453;27;20234;-53
2022/08/03 02:14:09;;;;;;;3.55;3.25;;;;;;;;;;5085353;27;20233;-53
2022/08/03 02:16:36;;;;;;;4.38;3.38;;;;;;;;;;5085323;27;20250;-55
2022/08/03 02:19:05;;;;;;;4.03;3.35;;;;;;;;;;5073839;27;20239;-54
2022/08/03 02:21:32;;;;;;;4.55;3.50;;;;;;;;;;5077166;27;20222;-54
2022/08/03 02:24:00;;;;;;;4.43;2.70;;;;;;;;;;5083118;27;20227;-53
2022/08/03 02:26:28;;;;;;;3.00;2.80;;;;;;;;;;5090372;27;20231;-54
2022/08/03 02:28:56;;;;;;;3.10;2.80;;;;;;;;;;5084681;27;20234;-54
2022/08/03 02:31:24;;;;;;;3.70;2.60;;;;;;;;;;5078606;27;20230;-54
2022/08/03 02:33:52;;;;;;;6.55;3.05;;;;;;;;;;5082932;27;20226;-55
2022/08/03 02:36:20;;;;;;;3.60;3.15;;;;;;;;;;5083034;27;20233;-53
2022/08/03 02:38:49;;;;;;;2.75;2.55;;;;;;;;;;5073807;27;20287;-54
2022/08/03 02:41:17;;;;;;;2.78;2.50;;;;;;;;;;5081606;27;20246;-54
2022/08/03 02:43:46;;;;;;;2.92;2.72;;;;;;;;;;5082227;27;20234;-53
2022/08/03 02:46:13;;;;;;;3.70;2.80;;;;;;;;;;5089120;27;20362;-53
2022/08/03 02:48:41;;;;;;;3.35;3.05;;;;;;;;;;5078661;27;20230;-53
2022/08/03 02:51:07;;;;;;;3.97;3.40;;;;;;;;;;5073078;27;20587;-54
2022/08/03 02:53:34;;;;;;;9.85;3.10;;;;;;;;;;5074317;27;20711;-54
2022/08/03 02:56:02;;;;;;;3.63;3.33;;;;;;;;;;5081442;27;20234;-53
2022/08/03 02:58:31;;;;;;;3.40;3.00;;;;;;;;;;5082996;27;20227;-53
2022/08/03 03:00:57;;;;;;;5.97;2.80;;;;;;;;;;5080371;27;20234;-54
2022/08/03 03:03:25;;;;;;;3.08;2.78;;;;;;;;;;5087899;27;20235;-54
2022/08/03 03:05:51;;;;;;;3.20;2.80;;;;;;;;;;5081132;27;20234;-54
2022/08/03 03:08:19;;;;;;;4.50;2.88;;;;;;;;;;5082833;27;20234;-53
2022/08/03 03:10:45;;;;;;;5.28;3.20;;;;;;;;;;5084269;27;20234;-59
2022/08/03 03:13:13;;;;;;;7.18;3.60;;;;;;;;;;5082647;27;20222;-54
2022/08/03 03:15:41;;;;;;;4.47;3.22;;;;;;;;;;5082341;27;20238;-53
2022/08/03 03:18:08;;;;;;;3.20;2.85;;;;;;;;;;5072860;28;20844;-53
2022/08/03 03:20:36;;;;;;;3.28;3.08;;;;;;;;;;5080375;27;20234;-54
2022/08/03 03:23:03;;;;;;;2.75;2.55;;;;;;;;;;5082439;27;20237;-53
2022/08/03 03:25:31;;;;;;;2.70;2.50;;;;;;;;;;5081238;27;20228;-53
2022/08/03 03:27:58;;;;;;;3.10;2.90;;;;;;;;;;5083809;27;20245;-54
2022/08/03 03:30:24;;;;;;;3.20;2.72;;;;;;;;;;5081880;27;20242;-54
2022/08/03 03:32:52;;;;;;;5.18;2.83;;;;;;;;;;5077137;27;20778;-53
2022/08/03 03:35:19;;;;;;;3.55;3.03;;;;;;;;;;5089348;27;20226;-54
2022/08/03 03:37:45;;;;;;;3.05;2.85;;;;;;;;;;5084302;27;20617;-54
2022/08/03 03:40:12;;;;;;;4.03;3.30;;;;;;;;;;5080425;27;20234;-54
2022/08/03 03:42:38;;;;;;;2.70;2.50;;;;;;;;;;5078882;27;20253;-54
2022/08/03 03:45:05;;;;;;;2.72;2.50;;;;;;;;;;5085361;27;20835;-53
2022/08/03 03:47:32;;;;;;;3.53;3.22;;;;;;;;;;5080069;27;20226;-53
2022/08/03 03:50:00;;;;;;;3.35;2.88;;;;;;;;;;5086444;27;20276;-53
2022/08/03 03:52:26;;;;;;;4.07;3.65;;;;;;;;;;5086789;27;20240;-52
2022/08/03 03:54:52;;;;;;;3.35;2.60;;;;;;;;;;5081671;27;20230;-54
2022/08/03 03:57:18;;;;;;;3.35;3.15;;;;;;;;;;5085497;27;20249;-54
2022/08/03 03:59:45;;;;;;;3.28;2.97;;;;;;;;;;5087743;27;20235;-53
2022/08/03 04:02:11;;;;;;;3.05;2.80;;;;;;;;;;5086473;27;20272;-53
2022/08/03 04:12:56;;;;;;;3.63;3.30;;;;;;;;;;5080214;27;20668;-53
2022/08/03 04:15:22;;;;;;;3.17;2.97;;;;;;;;;;5085231;27;20230;-53
2022/08/03 04:17:50;;;;;;;4.30;3.28;;;;;;;;;;5087202;27;20333;-54
2022/08/03 04:20:17;;;;;;;3.63;3.30;;;;;;;;;;5077590;27;20235;-55
2022/08/03 04:22:45;;;;;;;3.67;3.35;;;;;;;;;;5084810;27;20245;-55
2022/08/03 04:25:16;;;;;;;3.25;3.00;;;;;;;;;;5088009;27;20241;-54
2022/08/03 04:27:43;;;;;;;3.58;3.10;;;;;;;;;;5086903;27;20234;-55
2022/08/03 04:30:10;;;;;;;4.43;3.42;;;;;;;;;;5085449;27;20226;-55
2022/08/03 04:32:38;;;;;;;2.72;2.53;;;;;;;;;;5082105;28;20237;-54
2022/08/03 04:35:06;;;;;;;3.55;2.75;;;;;;;;;;5092843;27;20609;-53
2022/08/03 04:37:35;;;;;;;3.47;3.17;;;;;;;;;;5073819;28;20242;-53
2022/08/03 04:40:05;;;;;;;7.13;3.17;;;;;;;;;;5082843;27;20230;-54
2022/08/03 04:42:33;;;;;;;4.70;3.58;;;;;;;;;;5086688;27;20233;-54
2022/08/03 04:44:59;;;;;;;3.88;2.80;;;;;;;;;;5087961;27;20230;-54
2022/08/03 04:47:25;;;;;;;4.78;2.97;;;;;;;;;;5086240;27;20234;-54
2022/08/03 04:49:52;;;;;;;2.83;2.63;;;;;;;;;;5081805;27;20230;-53
2022/08/03 04:52:18;;;;;;;4.43;3.28;;;;;;;;;;5081402;27;20227;-53
2022/08/03 04:54:46;;;;;;;4.80;3.00;;;;;;;;;;5086568;28;20226;-54
2022/08/03 04:57:14;;;;;;;5.13;3.47;;;;;;;;;;5080598;27;20235;-53
2022/08/03 04:59:40;;;;;;;2.95;2.63;;;;;;;;;;5075302;27;20234;-54
2022/08/03 05:02:07;;;;;;;5.57;3.47;;;;;;;;;;5085762;27;20273;-55
2022/08/03 05:04:33;;;;;;;3.53;2.92;;;;;;;;;;5090338;27;20221;-54
2022/08/03 05:06:59;;;;;;;3.33;3.13;;;;;;;;;;5083534;27;20730;-54
2022/08/03 05:09:26;;;;;;;5.10;3.58;;;;;;;;;;5085769;27;20237;-53
2022/08/03 05:11:52;;;;;;;5.00;3.33;;;;;;;;;;5081898;27;20234;-54
2022/08/03 05:14:20;;;;;;;4.20;3.38;;;;;;;;;;5079833;27;20231;-54
2022/08/03 05:16:46;;;;;;;2.67;2.47;;;;;;;;;;5084727;27;20230;-56
2022/08/03 05:19:12;;;;;;;4.60;2.97;;;;;;;;;;5085680;27;20234;-54
2022/08/03 05:21:39;;;;;;;7.88;3.10;;;;;;;;;;5082920;27;20322;-53
2022/08/03 05:24:05;;;;;;;3.78;3.38;;;;;;;;;;5079526;28;20859;-53
2022/08/03 05:26:31;;;;;;;3.83;2.80;;;;;;;;;;5075897;28;20227;-54
2022/08/03 05:28:58;;;;;;;3.10;2.42;;;;;;;;;;5082521;27;20249;-55
2022/08/03 05:31:25;;;;;;;3.80;3.22;;;;;;;;;;5086537;27;20234;-54
2022/08/03 05:33:52;;;;;;;5.97;2.88;;;;;;;;;;5079437;27;20231;-53
2022/08/03 05:36:18;;;;;;;5.32;2.97;;;;;;;;;;5082039;28;20718;-54
2022/08/03 05:38:45;;;;;;;3.90;3.00;;;;;;;;;;5084147;27;20235;-54
2022/08/03 05:41:11;;;;;;;3.72;3.00;;;;;;;;;;5062746;28;20739;-53
2022/08/03 05:43:37;;;;;;;6.93;3.28;;;;;;;;;;5062810;28;20239;-53
2022/08/03 05:46:04;;;;;;;3.22;2.72;;;;;;;;;;5088095;27;20230;-54
2022/08/03 05:48:31;;;;;;;5.70;2.67;;;;;;;;;;5078823;27;20234;-58
2022/08/03 05:50:58;;;;;;;5.20;2.80;;;;;;;;;;5083124;27;20238;-53
2022/08/03 05:53:25;;;;;;;4.95;3.13;;;;;;;;;;5076279;27;20280;-54
2022/08/03 05:55:51;;;;;;;4.07;3.33;;;;;;;;;;5082430;28;20238;-54
2022/08/03 05:58:18;;;;;;;3.25;2.58;;;;;;;;;;5073181;27;20231;-53
2022/08/03 06:00:44;;;;;;;3.22;2.92;;;;;;;;;;5078909;27;20250;-53
2022/08/03 06:03:10;;;;;;;2.47;2.28;;;;;;;;;;5084840;27;20716;-53
2022/08/03 06:05:38;;;;;;;4.78;4.05;;;;;;;;;;5080867;27;20237;-54
2022/08/03 06:08:05;;;;;;;3.70;2.42;;;;;;;;;;5086714;27;20318;-53
2022/08/03 06:10:32;;;;;;;3.70;2.92;;;;;;;;;;5080873;27;20233;-53
2022/08/03 06:12:58;;;;;;;3.80;2.42;;;;;;;;;;5083456;27;20281;-54
2022/08/03 06:15:24;;;;;;;3.42;2.88;;;;;;;;;;5084252;27;20240;-53
2022/08/03 06:17:52;;;;;;;4.70;4.30;;;;;;;;;;5083100;27;20232;-55
2022/08/03 06:20:19;;;;;;;3.45;3.08;;;;;;;;;;5085686;27;20234;-54
2022/08/03 06:22:47;;;;;;;4.28;3.03;;;;;;;;;;5083088;27;20238;-54
2022/08/03 06:25:13;;;;;;;3.95;2.10;;;;;;;;;;5081669;28;20621;-53
2022/08/03 06:27:39;;;;;;;3.80;2.45;;;;;;;;;;5078777;27;20229;-54
2022/08/03 06:30:07;;;;;;;2.33;2.10;;;;;;;;;;5087121;27;20242;-53
2022/08/03 06:32:33;;;;;;;4.22;2.35;;;;;;;;;;5080631;27;20381;-53
2022/08/03 06:35:00;;;;;;;6.90;2.92;;;;;;;;;;5083778;27;20235;-54
2022/08/03 06:37:27;;;;;;;2.55;2.22;;;;;;;;;;5086240;27;20242;-54
2022/08/03 06:39:55;;;;;;;6.88;2.55;;;;;;;;;;5078775;27;20254;-54
2022/08/03 06:42:21;;;;;;;2.70;1.95;;;;;;;;;;5080025;27;20227;-53
2022/08/03 06:44:47;;;;;;;4.30;2.33;;;;;;;;;;5071807;27;20238;-54
2022/08/03 06:47:14;;;;;;;2.72;2.30;;;;;;;;;;5078592;27;20226;-54
2022/08/03 06:49:40;;;;;;;3.10;2.53;;;;;;;;;;5077571;27;20230;-53
2022/08/03 06:52:07;;;;;;;5.35;2.13;;;;;;;;;;5087018;27;20292;-53
2022/08/03 06:54:34;;;;;;;4.93;2.17;;;;;;;;;;5077448;27;20234;-53
2022/08/03 06:57:02;;;;;;;2.90;2.70;;;;;;;;;;5083964;27;20619;-53
2022/08/03 06:59:29;;;;;;;5.20;3.13;;;;;;;;;;5083032;27;20237;-54
2022/08/03 07:01:55;;;;;;;4.90;3.03;;;;;;;;;;5080357;27;20727;-53
2022/08/03 07:04:21;;;;;;;4.85;2.35;;;;;;;;;;5080444;27;20238;-55
2022/08/03 07:06:47;;;;;;;5.10;2.83;;;;;;;;;;5088335;27;20222;-54
2022/08/03 07:09:14;;;;;;;3.75;2.10;;;;;;;;;;5086973;27;20227;-54
2022/08/03 07:11:40;;;;;;;2.40;1.52;;;;;;;;;;5085546;28;20240;-54
2022/08/03 07:14:08;;;;;;;4.68;2.53;;;;;;;;;;5085840;28;20238;-54
2022/08/03 07:16:34;;;;;;;4.10;1.92;;;;;;;;;;5082820;27;20226;-53
2022/08/03 07:19:00;;;;;;;2.85;2.08;;;;;;;;;;5084373;27;20234;-53
2022/08/03 07:21:27;;;;;;;5.85;2.28;;;;;;;;;;5077051;27;20238;-54
2022/08/03 07:23:53;;;;;;;2.33;2.08;;;;;;;;;;5083553;27;20238;-53
2022/08/03 07:26:19;;;;;;;2.33;1.77;;;;;;;;;;5083000;27;20238;-53
2022/08/03 07:28:46;;;;;;;2.58;2.03;;;;;;;;;;5084799;28;20341;-53
2022/08/03 07:31:13;;;;;;;8.95;2.38;;;;;;;;;;5076705;27;20235;-54
2022/08/03 07:33:40;;;;;;;4.32;2.20;;;;;;;;;;5086463;27;20226;-57
2022/08/03 07:36:06;;;;;;;2.53;1.92;;;;;;;;;;5089499;27;20237;-54
2022/08/03 07:38:32;;;;;;;2.05;1.85;;;;;;;;;;5077366;27;20233;-55
2022/08/03 07:40:59;;;;;;;3.95;1.85;;;;;;;;;;5082242;27;20231;-54
2022/08/03 07:43:25;;;;;;;10.10;2.15;;;;;;;;;;5088357;27;20240;-54
2022/08/03 07:45:51;;;;;;;1.77;1.60;;;;;;;;;;5086281;27;20230;-55
2022/08/03 07:48:19;;;;;;;2.30;1.70;;;;;;;;;;5082395;27;20239;-54
2022/08/03 07:50:46;;;;;;;4.78;2.00;;;;;;;;;;5084876;27;20238;-54
2022/08/03 07:53:13;;;;;;;3.55;2.08;;;;;;;;;;5086618;27;20297;-54
2022/08/03 07:55:39;;;;;;;2.80;1.70;;;;;;;;;;5088099;27;20708;-53
2022/08/03 07:58:08;;;;;;;2.55;1.80;;;;;;;;;;5082434;27;20226;-54
2022/08/03 08:00:35;;;;;;;1.88;1.77;;;;;;;;;;5085283;27;20231;-54
2022/08/03 08:03:01;;;;;;;2.72;2.17;;;;;;;;;;5085218;27;20246;-54
2022/08/03 08:05:29;;;;;;;2.60;1.80;;;;;;;;;;5086439;27;20250;-53
2022/08/03 08:07:55;;;;;;;1.52;1.42;;;;;;;;;;5082091;27;20245;-55
2022/08/03 08:10:22;;;;;;;3.13;2.05;;;;;;;;;;5078313;27;20235;-55
2022/08/03 08:12:49;;;;;;;2.78;1.80;;;;;;;;;;5070124;27;20235;-54
2022/08/03 08:15:15;;;;;;;4.13;1.83;;;;;;;;;;5075200;27;20236;-54
2022/08/03 08:17:42;;;;;;;3.55;1.80;;;;;;;;;;5083836;27;20598;-54
2022/08/03 08:20:09;;;;;;;2.33;2.13;;;;;;;;;;5076665;28;20289;-55
2022/08/03 08:22:37;;;;;;;1.80;1.70;;;;;;;;;;5088436;27;20562;-54
2022/08/03 08:25:04;;;;;;;2.75;2.55;;;;;;;;;;5066224;27;20238;-53
2022/08/03 08:27:30;;;;;;;4.75;2.15;;;;;;;;;;5074929;27;20234;-53
2022/08/03 08:29:56;;;;;;;1.80;1.70;;;;;;;;;;5074597;27;20239;-54
2022/08/03 08:32:23;;;;;;;8.55;5.53;;;;;;;;;;5077358;27;20577;-55
2022/08/03 08:34:49;;;;;;;2.03;1.75;;;;;;;;;;5076735;27;20241;-54
2022/08/03 08:37:16;;;;;;;3.25;1.77;;;;;;;;;;5076923;27;20235;-54
2022/08/03 08:39:43;;;;;;;1.95;1.75;;;;;;;;;;5068570;27;20850;-54
2022/08/03 08:42:10;;;;;;;2.10;1.90;;;;;;;;;;5070609;27;20237;-53
2022/08/03 08:44:36;;;;;;;1.42;1.35;;;;;;;;;;5078847;27;20234;-54
2022/08/03 08:47:03;;;;;;;3.22;1.50;;;;;;;;;;5078888;27;20246;-54
2022/08/03 08:49:32;;;;;;;2.38;1.60;;;;;;;;;;5072940;27;20231;-56
2022/08/03 08:51:59;;;;;;;2.22;1.73;;;;;;;;;;5080194;27;20445;-55
2022/08/03 08:54:26;;;;;;;2.30;2.10;;;;;;;;;;5074388;27;20234;-54
2022/08/03 08:56:55;;;;;;;2.35;1.88;;;;;;;;;;5080688;27;20705;-54
2022/08/03 08:59:22;;;;;;;3.40;2.30;;;;;;;;;;5066416;27;20223;-56
2022/08/03 09:01:48;;;;;;;4.38;2.42;;;;;;;;;;5077973;27;20238;-54
2022/08/03 09:04:15;;;;;;;2.45;1.73;;;;;;;;;;5086707;27;20711;-53
2022/08/03 09:06:41;;;;;;;2.08;1.98;;;;;;;;;;5080852;27;20231;-54
2022/08/03 09:09:08;;;;;;;3.30;1.40;;;;;;;;;;5085978;27;20749;-53
2022/08/03 09:11:34;;;;;;;1.40;1.30;;;;;;;;;;5076450;27;20740;-55
2022/08/03 09:14:02;;;;;;;2.00;1.80;;;;;;;;;;5079856;27;20313;-52
2022/08/03 09:16:28;;;;;;;4.32;1.80;;;;;;;;;;5073036;27;20226;-53
2022/08/03 09:18:55;;;;;;;6.38;1.98;;;;;;;;;;5078047;27;20241;-54
2022/08/03 09:21:23;;;;;;;4.32;1.98;;;;;;;;;;5086303;27;20234;-53
2022/08/03 09:23:50;;;;;;;3.42;1.88;;;;;;;;;;5070116;27;20701;-54
2022/08/03 09:26:20;;;;;;;1.50;1.40;;;;;;;;;;5077076;27;20231;-55
2022/08/03 09:28:46;;;;;;;3.15;1.70;;;;;;;;;;5078964;27;20226;-55
2022/08/03 09:31:15;;;;;;;2.72;2.00;;;;;;;;;;5075172;27;21005;-54
2022/08/03 09:33:47;;;;;;;2.25;2.05;;;;;;;;;;5080037;27;20230;-54
2022/08/03 09:36:28;;;;;;;3.30;1.65;;;;;;;;;;5080221;28;20684;-54
2022/08/03 09:39:01;;;;;;;3.15;1.77;;;;;;;;;;5081391;28;20749;-55
2022/08/03 09:41:27;;;;;;;1.67;1.58;;;;;;;;;;5076156;27;20231;-55
2022/08/03 09:43:55;;;;;;;3.17;1.80;;;;;;;;;;5069240;27;20327;-54
2022/08/03 09:46:23;;;;;;;1.75;1.45;;;;;;;;;;5075258;27;20227;-56
2022/08/03 09:48:50;;;;;;;3.83;1.92;;;;;;;;;;5076179;27;20259;-54
2022/08/03 09:51:17;;;;;;;1.52;1.42;;;;;;;;;;5074478;27;20341;-54
2022/08/03 09:53:44;;;;;;;2.90;2.00;;;;;;;;;;5078689;27;20751;-54
2022/08/03 09:56:10;;;;;;;3.08;2.13;;;;;;;;;;5079739;27;20230;-53
2022/08/03 09:58:44;;;;;;;2.50;1.80;;;;;;;;;;5077383;27;20234;-53
2022/08/03 10:01:11;;;;;;;1.70;1.60;;;;;;;;;;5077843;27;20242;-54
2022/08/03 10:03:39;;;;;;;1.88;1.77;;;;;;;;;;5072690;27;20245;-55
2022/08/03 10:06:14;;;;;;;1.90;1.63;;;;;;;;;;5083286;27;20318;-54
2022/08/03 10:08:40;;;;;;;3.35;1.42;;;;;;;;;;5079277;27;20237;-53
2022/08/03 10:11:07;;;;;;;2.65;1.70;;;;;;;;;;5073421;27;20288;-53
2022/08/03 10:13:33;;;;;;;1.48;1.38;;;;;;;;;;5076626;27;20230;-54
2022/08/03 10:16:00;;;;;;;2.05;1.40;;;;;;;;;;5073982;27;20226;-54
2022/08/03 10:18:26;;;;;;;2.58;2.17;;;;;;;;;;5081866;27;20234;-53
2022/08/03 10:21:00;;;;;;;2.17;1.55;;;;;;;;;;5071264;27;20233;-54
2022/08/03 10:23:27;;;;;;;3.17;1.75;;;;;;;;;;5079911;27;20254;-54
2022/08/03 10:25:57;;;;;;;2.40;1.83;;;;;;;;;;5061182;27;20242;-55
2022/08/03 10:28:24;;;;;;;1.65;1.55;;;;;;;;;;5058233;27;20313;-53
2022/08/03 10:30:52;;;;;;;4.72;1.80;;;;;;;;;;5065991;27;20239;-54
2022/08/03 10:33:19;;;;;;;3.45;1.80;;;;;;;;;;5083988;27;20238;-54
2022/08/03 10:35:47;;;;;;;1.30;1.25;;;;;;;;;;5080622;27;20723;-54
2022/08/03 10:38:17;;;;;;;1.70;1.60;;;;;;;;;;5082567;27;20311;-55
2022/08/03 10:40:44;;;;;;;1.58;1.48;;;;;;;;;;5056783;28;20228;-53
2022/08/03 10:43:12;;;;;;;3.58;1.63;;;;;;;;;;5075140;27;20233;-54
2022/08/03 10:45:40;;;;;;;2.95;1.73;;;;;;;;;;5083176;27;20230;-54
2022/08/03 10:48:07;;;;;;;1.50;1.40;;;;;;;;;;5079501;27;20234;-54
2022/08/03 10:50:34;;;;;;;3.38;1.95;;;;;;;;;;5088334;27;20261;-54
2022/08/03 10:53:05;;;;;;;1.83;1.73;;;;;;;;;;5089824;27;20269;-55
2022/08/03 10:58:36;;;;;;;3.53;3.20;;;;;;;;;;5081016;27;20237;-54
2022/08/03 11:01:03;;;;;;;5.20;4.10;;;;;;;;;;5064799;27;20725;-53
2022/08/03 11:03:30;;;;;;;2.97;1.70;;;;;;;;;;5063661;27;20245;-55
2022/08/03 11:06:15;;;;;;;7.25;2.97;;;;;;;;;;5061889;27;20234;-53
2022/08/03 11:08:42;;;;;;;1.77;1.67;;;;;;;;;;5057643;27;20819;-53
2022/08/03 11:11:23;;;;;;;4.18;3.17;;;;;;;;;;5057421;27;20246;-54
2022/08/03 11:13:58;;;;;;;2.00;1.83;;;;;;;;;;5056802;27;20779;-54
2022/08/03 11:16:26;;;;;;;4.05;2.53;;;;;;;;;;5056880;27;20253;-52
2022/08/03 11:18:56;;;;;;;2.10;1.55;;;;;;;;;;5079374;27;20241;-53
2022/08/03 11:21:42;;;;;;;1.80;1.55;;;;;;;;;;5075387;27;20246;-55
2022/08/03 11:24:08;;;;;;;3.85;2.92;;;;;;;;;;5072645;27;20245;-52
2022/08/03 11:26:35;;;;;;;4.53;2.70;;;;;;;;;;5077121;27;20241;-53
2022/08/03 11:29:22;;;;;;;1.77;1.67;;;;;;;;;;5088945;27;20234;-53
2022/08/03 11:31:50;;;;;;;2.13;1.92;;;;;;;;;;5073429;27;20331;-54
2022/08/03 11:34:16;;;;;;;1.67;1.42;;;;;;;;;;5077175;27;20238;-53
2022/08/03 11:37:01;;;;;;;1.42;1.30;;;;;;;;;;5080748;27;20226;-55
2022/08/03 11:39:37;;;;;;;2.08;1.42;;;;;;;;;;5069679;28;20870;-52
2022/08/03 11:42:19;;;;;;;1.67;1.58;;;;;;;;;;5070892;28;20245;-53
2022/08/03 11:44:45;;;;;;;3.13;1.83;;;;;;;;;;5077229;27;20233;-53
2022/08/03 11:47:16;;;;;;;3.60;1.33;;;;;;;;;;5068840;27;20226;-54
2022/08/03 11:49:43;;;;;;;1.70;1.60;;;;;;;;;;5069844;27;20316;-53
2022/08/03 11:52:09;;;;;;;2.50;1.60;;;;;;;;;;5078181;27;20234;-52
2022/08/03 11:54:36;;;;;;;1.98;1.88;;;;;;;;;;5070176;27;20234;-54
2022/08/03 11:57:02;;;;;;;3.20;2.25;;;;;;;;;;5080890;27;20235;-53
2022/08/03 11:59:31;;;;;;;1.88;1.77;;;;;;;;;;5084227;27;20222;-53
2022/08/03 12:02:05;;;;;;;2.90;1.40;;;;;;;;;;5083471;27;20245;-54
2022/08/03 12:04:48;;;;;;;1.50;1.40;;;;;;;;;;5091555;27;20226;-53
2022/08/03 12:07:16;;;;;;;1.40;1.30;;;;;;;;;;5079813;27;20343;-54
2022/08/03 12:09:42;;;;;;;5.03;1.92;;;;;;;;;;5076140;27;20321;-53
2022/08/03 12:12:09;;;;;;;3.67;1.77;;;;;;;;;;5076403;27;20240;-53
2022/08/03 12:14:35;;;;;;;2.33;1.33;;;;;;;;;;5080101;27;20312;-53
2022/08/03 12:17:02;;;;;;;1.42;1.30;;;;;;;;;;5077834;27;20234;-52
2022/08/03 12:19:41;;;;;;;2.55;1.70;;;;;;;;;;5080025;27;20226;-54
2022/08/03 12:22:09;;;;;;;2.53;2.00;;;;;;;;;;5080000;27;20242;-53
2022/08/03 12:24:40;;;;;;;1.75;1.50;;;;;;;;;;5075375;27;20234;-52
2022/08/03 12:27:06;;;;;;;3.38;1.63;;;;;;;;;;5075737;27;21369;-53
2022/08/03 12:29:33;;;;;;;2.05;1.60;;;;;;;;;;5078087;27;20234;-53
2022/08/03 12:31:59;;;;;;;4.38;1.85;;;;;;;;;;5073807;27;20234;-53
2022/08/03 12:34:40;;;;;;;4.18;1.98;;;;;;;;;;5071387;27;20308;-53
2022/08/03 12:37:07;;;;;;;1.50;1.40;;;;;;;;;;5070869;27;20248;-53
2022/08/03 12:39:34;;;;;;;2.85;1.67;;;;;;;;;;5081073;27;20245;-54
2022/08/03 12:42:01;;;;;;;2.03;1.30;;;;;;;;;;5073843;27;20735;-54
2022/08/03 12:44:31;;;;;;;5.70;1.70;;;;;;;;;;5076941;27;20245;-53
2022/08/03 12:46:58;;;;;;;1.30;1.20;;;;;;;;;;5080429;27;20248;-53
2022/08/03 12:49:24;;;;;;;1.60;1.50;;;;;;;;;;5076994;27;20226;-53
2022/08/03 12:51:57;;;;;;;1.60;1.50;;;;;;;;;;5077593;27;20230;-54
2022/08/03 12:54:24;;;;;;;2.10;1.40;;;;;;;;;;5079803;27;20730;-52
2022/08/03 12:56:59;;;;;;;1.52;1.42;;;;;;;;;;5083312;27;20230;-54
2022/08/03 12:59:26;;;;;;;2.45;1.60;;;;;;;;;;5081497;27;20286;-53
2022/08/03 13:01:52;;;;;;;2.08;1.30;;;;;;;;;;5072434;27;20237;-53
2022/08/03 13:04:25;;;;;;;2.45;1.45;;;;;;;;;;5081191;27;20236;-53
2022/08/03 13:06:56;;;;;;;1.77;1.52;;;;;;;;;;5072748;27;20232;-53
2022/08/03 13:09:25;;;;;;;2.53;1.40;;;;;;;;;;5062127;27;20883;-54
2022/08/03 13:12:05;;;;;;;1.40;1.20;;;;;;;;;;5054446;27;20246;-54
2022/08/03 13:14:32;;;;;;;2.15;1.60;;;;;;;;;;5059312;27;21976;-54
2022/08/03 13:16:58;;;;;;;3.30;1.63;;;;;;;;;;5058961;27;20307;-53
2022/08/03 13:19:24;;;;;;;1.70;1.60;;;;;;;;;;5058184;27;20977;-54
2022/08/03 13:21:51;;;;;;;2.40;1.60;;;;;;;;;;5065863;27;20235;-54
2022/08/03 13:24:17;;;;;;;2.55;1.48;;;;;;;;;;5059925;27;20241;-52
2022/08/03 13:26:44;;;;;;;1.63;1.52;;;;;;;;;;5054798;27;20582;-53
2022/08/03 13:29:11;;;;;;;1.60;1.50;;;;;;;;;;5058450;27;20230;-57
2022/08/03 13:31:38;;;;;;;3.38;1.60;;;;;;;;;;5059344;27;20248;-53
2022/08/03 13:34:04;;;;;;;1.50;1.40;;;;;;;;;;5054001;27;20227;-53
2022/08/03 13:36:31;;;;;;;3.08;1.80;;;;;;;;;;5061237;27;20230;-53
2022/08/03 13:38:57;;;;;;;1.60;1.40;;;;;;;;;;5052456;27;20276;-53
2022/08/03 13:41:23;;;;;;;4.05;1.80;;;;;;;;;;5051884;27;20705;-53
2022/08/03 13:43:50;;;;;;;1.98;1.45;;;;;;;;;;5055506;27;20230;-53
2022/08/03 13:46:19;;;;;;;1.90;1.52;;;;;;;;;;5057716;27;20241;-52
2022/08/03 13:48:45;;;;;;;4.13;2.05;;;;;;;;;;5053120;27;20760;-53
2022/08/03 13:51:12;;;;;;;1.63;1.20;;;;;;;;;;5058777;27;20259;-53
2022/08/03 13:53:38;;;;;;;2.05;1.85;;;;;;;;;;5056324;27;20234;-53
2022/08/03 13:56:04;;;;;;;2.35;1.70;;;;;;;;;;5048788;27;20339;-55
2022/08/03 13:58:31;;;;;;;2.33;1.45;;;;;;;;;;5055258;27;20237;-54
2022/08/03 14:00:57;;;;;;;1.83;1.73;;;;;;;;;;5052281;27;20603;-53
2022/08/03 14:03:25;;;;;;;1.75;1.48;;;;;;;;;;5054000;27;20249;-54
2022/08/03 14:05:51;;;;;;;2.88;1.60;;;;;;;;;;5055458;27;20430;-54
2022/08/03 14:08:17;;;;;;;1.30;1.30;;;;;;;;;;5056109;27;20922;-54
2022/08/03 14:10:44;;;;;;;1.80;1.70;;;;;;;;;;5052158;28;20226;-53
2022/08/03 14:13:11;;;;;;;1.60;1.50;;;;;;;;;;5070570;27;20237;-54
2022/08/03 14:15:37;;;;;;;4.43;2.15;;;;;;;;;;5069440;27;20456;-54
2022/08/03 14:18:04;;;;;;;2.10;1.70;;;;;;;;;;5063970;27;20237;-54
2022/08/03 14:20:31;;;;;;;4.28;1.88;;;;;;;;;;5065896;27;20650;-54
2022/08/03 14:22:58;;;;;;;2.97;1.92;;;;;;;;;;5073158;27;20242;-52
2022/08/03 14:25:24;;;;;;;6.15;2.15;;;;;;;;;;5076259;27;20244;-53
2022/08/03 14:27:50;;;;;;;2.45;2.25;;;;;;;;;;5077289;27;20229;-52
2022/08/03 14:30:17;;;;;;;1.92;1.75;;;;;;;;;;5077095;27;20234;-53
2022/08/03 14:32:43;;;;;;;1.90;1.80;;;;;;;;;;5076869;28;20231;-53
2022/08/03 14:35:10;;;;;;;2.15;2.05;;;;;;;;;;5074044;27;20236;-53
2022/08/03 14:37:37;;;;;;;2.00;1.90;;;;;;;;;;5063965;27;20234;-53
2022/08/03 14:40:04;;;;;;;2.25;1.90;;;;;;;;;;5071008;27;20232;-54
2022/08/03 14:42:31;;;;;;;2.00;1.90;;;;;;;;;;5073964;27;20229;-52
2022/08/03 14:44:57;;;;;;;1.90;1.80;;;;;;;;;;5063193;27;20708;-53
2022/08/03 14:47:24;;;;;;;1.73;1.63;;;;;;;;;;5072875;27;20226;-55
2022/08/03 14:49:50;;;;;;;3.70;1.90;;;;;;;;;;5078121;27;20241;-54
2022/08/03 14:52:16;;;;;;;4.07;2.00;;;;;;;;;;5075541;27;20664;-54
2022/08/03 14:54:45;;;;;;;2.08;1.98;;;;;;;;;;5066123;27;20226;-53
2022/08/03 14:57:11;;;;;;;2.80;2.10;;;;;;;;;;5072923;27;20454;-54